Mauriceville, Texas
Current Conditions -  °F | °C
As of 10:15 AM on Thursday 27 Nov 2014 (Local Time) from KORG Reporting Station
Clear Clear  
Wind Chill: 14°   Ceiling: Unl
Heat Index: 14°   Visibility: 10mi
Dew Point:   Wind: 9mph
Humidity: 40%   Direction: 30°NNE
Pressure: 30.5"   Gusts: NA
Location:  30.2°N, 93.87°W
Report Text: KORG 271615Z AUTO 03008KT 10SM CLR 14/00 A3050 RMK AO2 T01350000
Loading
Personal Weather Stations






























Interactive Weather Map New forecast layout! Learn more

10-Day Weather Forecast

Advertisements
Track Severe Weather on mobile